Time;durP1;ratioP1;P1;durP2;ratioP2;P2;SDS_P1;SDS_P2;PMS_P1;PMS_P2;Temp;Humidity;BMP_temperature;BMP_pressure;BME280_temperature;BME280_humidity;BME280_pressure;Samples;Min_cycle;Max_cycle;Signal;HPM_P1;HPM_P2
2022/05/24 00:02:51;;;;;;;1.70;1.10;;;;;;;19.10;63.61;95686.13;10453483;28;20041;-23
2022/05/24 00:07:52;;;;;;;3.75;1.42;;;;;;;19.08;63.60;95690.41;10492996;28;20038;-24
2022/05/24 00:12:57;;;;;;;2.83;1.13;;;;;;;19.07;63.80;95691.25;10462560;28;20036;-23
2022/05/24 00:18:03;;;;;;;2.22;0.80;;;;;;;19.07;63.80;95694.63;10456778;28;20024;-23
2022/05/24 00:23:04;;;;;;;2.57;0.70;;;;;;;19.03;64.10;95682.03;10455677;28;20036;-23
2022/05/24 00:28:06;;;;;;;4.28;1.00;;;;;;;19.18;63.55;95671.59;10455528;28;20048;-23
2022/05/24 00:33:06;;;;;;;2.67;1.00;;;;;;;19.25;63.23;95663.03;10455048;28;20538;-24
2022/05/24 00:38:12;;;;;;;2.67;1.00;;;;;;;19.19;63.39;95658.09;10456007;28;20071;-24
2022/05/24 00:43:24;;;;;;;0.97;0.80;;;;;;;19.12;63.39;95656.50;10490573;28;20044;-22
2022/05/24 00:48:39;;;;;;;3.75;0.88;;;;;;;19.08;63.77;95663.31;10493875;28;20448;-25
2022/05/24 00:53:45;;;;;;;2.05;1.17;;;;;;;19.06;64.30;95656.59;10454615;28;20036;-24
2022/05/24 00:59:03;;;;;;;4.33;0.83;;;;;;;19.07;64.22;95663.34;10455091;28;20070;-23
2022/05/24 01:04:05;;;;;;;2.85;1.10;;;;;;;19.06;64.13;95656.59;10474556;28;20135;-24
2022/05/24 01:09:09;;;;;;;1.52;0.82;;;;;;;19.05;64.31;95654.94;10492822;28;20638;-23
2022/05/24 01:14:14;;;;;;;1.58;0.80;;;;;;;19.06;64.20;95651.53;10453288;28;20036;-23
2022/05/24 01:19:35;;;;;;;3.63;0.90;;;;;;;19.02;63.94;95647.38;10453656;28;20237;-24
2022/05/24 01:24:44;;;;;;;2.85;0.98;;;;;;;19.17;63.11;95639.50;10453629;28;20037;-23
2022/05/24 01:29:45;;;;;;;2.47;0.70;;;;;;;19.24;62.31;95633.47;10453906;28;20087;-24
2022/05/24 01:40:05;;;;;;;1.88;0.63;;;;;;;19.10;62.38;95650.63;10452764;28;20028;-23
2022/05/24 01:45:20;;;;;;;1.60;0.70;;;;;;;19.05;62.21;95639.72;10451991;28;20491;-24
2022/05/24 01:50:22;;;;;;;5.50;0.70;;;;;;;19.02;62.22;95657.53;10452847;28;20127;-23
2022/05/24 01:55:34;;;;;;;0.60;0.43;;;;;;;19.03;62.46;95654.13;10455374;28;20062;-24
2022/05/24 02:00:35;;;;;;;2.05;0.88;;;;;;;19.04;62.25;95654.13;10454582;28;20041;-25
2022/05/24 02:05:40;;;;;;;2.03;0.52;;;;;;;19.00;62.17;95656.75;10486810;28;20036;-24
2022/05/24 02:10:55;;;;;;;1.95;0.60;;;;;;;19.00;61.97;95659.28;10480783;28;20075;-23
2022/05/24 02:15:59;;;;;;;0.50;0.40;;;;;;;18.89;61.54;95671.28;10454517;28;20160;-24
2022/05/24 02:20:59;;;;;;;2.15;0.60;;;;;;;19.03;61.20;95661.75;10454528;28;20025;-25
2022/05/24 02:26:00;;;;;;;0.50;0.50;;;;;;;19.12;60.92;95657.34;10469944;28;20036;-23
2022/05/24 02:31:04;;;;;;;0.77;0.60;;;;;;;19.02;60.65;95653.28;10495476;28;20048;-25
2022/05/24 02:36:06;;;;;;;1.58;0.40;;;;;;;18.93;60.49;95653.47;10471508;28;20059;-23
2022/05/24 02:46:26;;;;;;;1.17;0.50;;;;;;;18.93;60.02;95650.09;10452594;28;20048;-23
2022/05/24 02:51:27;;;;;;;2.35;0.50;;;;;;;18.87;60.00;95656.13;10451986;28;20033;-24
2022/05/24 02:56:27;;;;;;;1.83;0.50;;;;;;;18.86;59.93;95658.69;10451606;28;20037;-24
2022/05/24 03:01:30;;;;;;;0.85;0.68;;;;;;;18.86;59.66;95661.22;10450914;28;20529;-22
2022/05/24 03:09:33;;;;;;;1.35;1.25;;;;;;;18.89;59.48;95658.63;10451369;28;20045;-24
2022/05/24 03:17:09;;;;;;;2.70;1.35;;;;;;;18.85;59.20;95662.09;10490954;28;20021;-23
2022/05/24 03:22:10;;;;;;;0.60;0.50;;;;;;;18.84;59.24;95661.22;10453080;28;20554;-25
2022/05/24 03:27:13;;;;;;;4.53;0.90;;;;;;;18.86;59.01;95654.47;10451441;28;20110;-22
2022/05/24 03:32:17;;;;;;;3.85;0.60;;;;;;;18.88;58.89;95659.47;10455250;28;20039;-24
2022/05/24 03:37:17;;;;;;;1.55;0.80;;;;;;;18.89;58.80;95676.38;10457208;28;20029;-22
2022/05/24 03:42:17;;;;;;;2.23;0.70;;;;;;;18.89;59.00;95674.69;10461242;28;20032;-23
2022/05/24 03:47:18;;;;;;;1.33;0.70;;;;;;;18.92;59.18;95673.78;10459262;28;20037;-23
2022/05/24 03:52:19;;;;;;;2.97;0.70;;;;;;;18.92;59.08;95673.78;10460291;28;20033;-24
2022/05/24 04:02:39;;;;;;;3.85;0.93;;;;;;;18.89;59.24;95669.59;10460869;28;20470;-22
2022/05/24 04:07:39;;;;;;;1.80;0.75;;;;;;;18.92;59.25;95678.88;10488075;28;20120;-22
2022/05/24 04:12:40;;;;;;;0.57;0.50;;;;;;;18.95;58.96;95674.56;10476336;28;20589;-23
2022/05/24 04:17:41;;;;;;;3.22;0.90;;;;;;;19.09;58.83;95677.66;10475815;28;20037;-24
2022/05/24 04:22:42;;;;;;;0.95;0.43;;;;;;;19.08;58.62;95678.53;10488149;28;20043;-25
2022/05/24 04:27:42;;;;;;;2.40;0.80;;;;;;;18.97;58.99;95682.13;10463880;28;20056;-23
2022/05/24 04:32:43;;;;;;;0.60;0.50;;;;;;;18.93;59.01;95691.50;10473475;28;20456;-23
2022/05/24 04:37:43;;;;;;;3.10;0.82;;;;;;;18.93;59.05;95700.81;10495440;28;20352;-22
2022/05/24 04:42:44;;;;;;;1.43;0.47;;;;;;;18.86;59.13;95689.13;10462650;28;20029;-23
2022/05/24 04:47:44;;;;;;;2.45;0.45;;;;;;;18.85;59.21;95695.06;10453513;28;20326;-23
2022/05/24 04:52:44;;;;;;;0.77;0.50;;;;;;;18.85;58.97;95698.41;10454438;28;20086;-23
2022/05/24 04:57:45;;;;;;;3.13;1.03;;;;;;;18.84;58.73;95701.00;10453816;28;20481;-23
2022/05/24 05:02:45;;;;;;;1.42;0.70;;;;;;;18.82;58.95;95712.88;10453887;28;20625;-22
2022/05/24 05:07:46;;;;;;;1.48;0.60;;;;;;;18.77;58.96;95717.16;10452547;28;20036;-24
2022/05/24 05:12:47;;;;;;;1.83;0.70;;;;;;;18.91;58.69;95733.00;10452949;28;20029;-25
2022/05/24 05:17:47;;;;;;;1.85;0.90;;;;;;;18.85;58.78;95728.84;10453999;28;20552;-23
2022/05/24 05:22:47;;;;;;;1.75;0.73;;;;;;;18.84;58.93;95726.34;10453060;28;20191;-22
2022/05/24 05:27:48;;;;;;;1.73;0.70;;;;;;;18.85;58.91;95735.63;10453027;28;20036;-23
2022/05/24 05:32:50;;;;;;;1.37;0.60;;;;;;;18.75;59.24;95756.94;10453290;28;22179;-22
2022/05/24 05:37:51;;;;;;;4.82;0.95;;;;;;;18.85;59.42;95754.19;10452525;28;20040;-22
2022/05/24 05:42:51;;;;;;;1.05;0.45;;;;;;;18.78;59.29;95779.69;10452386;28;20036;-23
2022/05/24 05:47:53;;;;;;;1.15;0.40;;;;;;;18.67;59.73;95789.19;10452800;28;20437;-25
2022/05/24 05:52:54;;;;;;;1.27;0.65;;;;;;;18.66;59.72;95818.75;10452730;28;20044;-24
2022/05/24 05:57:55;;;;;;;3.25;0.70;;;;;;;18.69;60.09;95839.00;10451781;28;20033;-24
2022/05/24 06:02:55;;;;;;;1.33;0.50;;;;;;;18.63;60.71;95859.38;10451880;28;20033;-24
2022/05/24 06:07:59;;;;;;;2.63;0.80;;;;;;;18.71;60.50;95856.72;10452617;28;20028;-22
2022/05/24 06:12:59;;;;;;;2.65;0.60;;;;;;;18.69;60.61;95882.09;10451480;28;20052;-26
2022/05/24 06:18:00;;;;;;;0.80;0.60;;;;;;;18.66;60.64;95909.19;10451467;28;20100;-24
2022/05/24 06:23:00;;;;;;;1.48;0.40;;;;;;;18.63;60.54;95940.50;10450638;28;20303;-23
2022/05/24 06:28:01;;;;;;;2.43;0.60;;;;;;;18.63;60.63;95955.69;10451097;28;20097;-24
2022/05/24 06:33:01;;;;;;;2.47;0.50;;;;;;;18.68;60.50;95958.19;10450975;28;20039;-23
2022/05/24 06:38:02;;;;;;;0.67;0.40;;;;;;;18.65;60.41;95969.19;10491119;28;20757;-22
2022/05/24 06:43:03;;;;;;;1.55;0.50;;;;;;;18.72;60.41;95985.16;10455864;28;20340;-23
2022/05/24 06:48:08;;;;;;;0.90;0.35;;;;;;;18.70;60.20;95984.34;10459842;28;20502;-23
2022/05/24 06:53:08;;;;;;;1.67;0.40;;;;;;;18.69;60.30;95995.34;10491467;28;20112;-24
2022/05/24 06:58:08;;;;;;;0.60;0.13;;;;;;;18.69;60.05;95997.88;10455808;28;20115;-23
2022/05/24 07:03:13;;;;;;;0.52;0.40;;;;;;;18.79;59.73;96002.81;10449779;28;20040;-23
2022/05/24 07:08:13;;;;;;;2.40;0.63;;;;;;;18.81;59.42;96001.09;10449843;28;20037;-23
2022/05/24 07:13:19;;;;;;;1.10;0.60;;;;;;;18.69;59.86;95995.34;10498203;28;20036;-24
2022/05/24 07:18:20;;;;;;;0.47;0.43;;;;;;;18.63;59.52;96005.56;10493562;28;20293;-23
2022/05/24 07:23:24;;;;;;;0.57;0.30;;;;;;;18.55;59.31;96012.41;10463201;28;20044;-23
2022/05/24 07:28:24;;;;;;;0.75;0.30;;;;;;;18.46;59.05;96030.25;10500965;28;20404;-24
2022/05/24 07:33:25;;;;;;;1.52;0.40;;;;;;;18.46;58.75;96020.97;10495791;28;20044;-25
2022/05/24 07:38:25;;;;;;;0.40;0.30;;;;;;;18.51;58.23;96033.59;10463621;28;20052;-26
2022/05/24 07:48:45;;;;;;;0.40;0.20;;;;;;;18.50;58.28;96049.66;10476833;28;20326;-23
2022/05/24 07:53:45;;;;;;;1.77;0.30;;;;;;;18.49;57.97;96028.53;10504249;28;20032;-23
2022/05/24 07:58:46;;;;;;;0.40;0.23;;;;;;;18.41;58.02;96026.94;10463541;28;20310;-24
2022/05/24 08:03:46;;;;;;;0.50;0.30;;;;;;;18.60;57.64;96021.63;10462202;28;20318;-24
2022/05/24 08:08:48;;;;;;;0.20;0.17;;;;;;;18.61;57.86;96010.66;10463550;28;20053;-25
2022/05/24 08:13:48;;;;;;;0.47;0.30;;;;;;;18.57;58.31;96018.31;10462281;28;20033;-23
2022/05/24 08:18:48;;;;;;;0.60;0.25;;;;;;;18.54;57.93;96018.34;10462101;28;20537;-23
2022/05/24 08:23:49;;;;;;;1.13;0.40;;;;;;;18.45;58.00;96010.84;10455373;28;20510;-23
2022/05/24 08:28:50;;;;;;;1.73;0.17;;;;;;;18.44;57.82;96019.31;10455446;28;20041;-23
2022/05/24 08:33:52;;;;;;;0.70;0.40;;;;;;;18.44;57.64;96020.16;10455460;28;20037;-24
2022/05/24 08:38:52;;;;;;;0.50;0.40;;;;;;;18.41;57.50;96016.81;10455158;28;20025;-24
2022/05/24 08:49:33;;;;;;;0.75;0.30;;;;;;;18.50;57.36;96037.81;10454835;28;20063;-23
2022/05/24 08:54:41;;;;;;;0.82;0.32;;;;;;;18.55;57.48;96043.69;10460279;28;20039;-24
2022/05/24 08:59:49;;;;;;;0.75;0.40;;;;;;;18.52;57.11;96032.72;10495980;28;20044;-24
2022/05/24 09:04:50;;;;;;;0.60;0.30;;;;;;;18.59;57.01;96036.88;10468257;28;20039;-23
2022/05/24 09:10:12;;;;;;;0.95;0.40;;;;;;;18.57;56.81;96028.47;10454081;28;20569;-23
2022/05/24 09:15:32;;;;;;;3.60;0.30;;;;;;;18.47;56.99;96034.47;10453656;28;20033;-24
2022/05/24 09:20:33;;;;;;;0.90;0.30;;;;;;;18.48;56.21;96044.59;10453265;28;20037;-23
2022/05/24 09:25:33;;;;;;;0.65;0.38;;;;;;;18.37;55.53;96045.56;10466858;28;20075;-24
2022/05/24 09:30:41;;;;;;;0.93;0.40;;;;;;;18.43;55.28;96041.25;10494918;28;20029;-24
2022/05/24 09:35:42;;;;;;;0.45;0.30;;;;;;;18.41;55.38;96029.47;10475542;28;20653;-24
2022/05/24 09:40:47;;;;;;;1.05;0.40;;;;;;;18.50;55.38;96025.13;10467493;28;20029;-26
2022/05/24 09:45:53;;;;;;;1.95;0.30;;;;;;;18.44;55.00;96034.50;10493569;28;20035;-24
2022/05/24 09:50:56;;;;;;;0.60;0.30;;;;;;;18.35;54.99;96034.59;10468271;28;20415;-24
2022/05/24 09:56:02;;;;;;;0.77;0.30;;;;;;;18.49;54.94;96053.06;10451865;28;20039;-23
2022/05/24 10:01:07;;;;;;;;;;;;;;;18.53;54.85;96042.88;10452660;28;20450;-24
2022/05/24 10:06:22;;;;;;;0.22;0.22;;;;;;;18.41;54.89;96037.91;10482451;28;19923;-25
2022/05/24 10:11:28;;;;;;;0.82;0.40;;;;;;;18.49;54.90;96050.53;10472083;28;20045;-22
2022/05/24 10:16:43;;;;;;;0.30;0.30;;;;;;;18.44;54.65;96049.72;10450989;28;20112;-24
2022/05/24 10:22:32;;;;;;;1.20;0.38;;;;;;;18.46;54.70;96037.84;10487397;28;20136;-23
2022/05/24 10:27:44;;;;;;;1.60;0.40;;;;;;;18.46;54.46;96045.47;10447130;28;20048;-25
2022/05/24 10:38:24;;;;;;;1.10;0.40;;;;;;;18.45;54.24;96042.09;10450851;28;20411;-24
2022/05/24 10:44:11;;;;;;;1.27;0.40;;;;;;;18.54;54.93;96031.00;10449855;28;20040;-24
2022/05/24 10:50:01;;;;;;;6.78;0.50;;;;;;;18.48;54.48;96041.22;10450448;28;20033;-24
2022/05/24 10:55:23;;;;;;;0.90;0.30;;;;;;;18.46;54.43;96026.03;10450389;28;20039;-21
2022/05/24 11:00:51;;;;;;;2.60;0.60;;;;;;;18.59;54.43;96016.59;10450484;28;20025;-23
2022/05/24 11:05:59;;;;;;;2.30;0.55;;;;;;;18.50;54.03;96004.03;10447012;28;20064;-23
2022/05/24 11:11:06;;;;;;;0.60;0.47;;;;;;;18.50;53.84;96004.03;10449816;28;20044;-24
2022/05/24 11:16:12;;;;;;;2.55;0.30;;;;;;;18.50;53.91;96006.56;10465618;28;20075;-23
2022/05/24 11:21:19;;;;;;;1.75;0.45;;;;;;;18.48;53.59;96008.25;10468467;28;20442;-23
2022/05/24 11:26:32;;;;;;;2.58;0.43;;;;;;;18.39;53.01;95999.06;10467953;28;20037;-22
2022/05/24 11:31:47;;;;;;;0.60;0.20;;;;;;;18.50;52.64;96004.84;10467877;28;20025;-23
2022/05/24 11:37:02;;;;;;;0.40;0.30;;;;;;;18.53;52.61;96004.00;10466508;28;20037;-24
2022/05/24 11:42:42;;;;;;;1.60;0.40;;;;;;;18.57;52.13;96005.66;10467995;28;20029;-23
2022/05/24 11:47:55;;;;;;;0.80;0.30;;;;;;;18.50;52.36;96015.00;10469181;28;20036;-23
2022/05/24 11:53:07;;;;;;;0.50;0.20;;;;;;;18.58;52.70;96012.38;10467603;28;20541;-23
2022/05/24 11:58:20;;;;;;;1.00;0.40;;;;;;;18.85;52.35;96012.06;10472791;28;20040;-22
2022/05/24 12:09:19;;;;;;;0.40;0.30;;;;;;;18.49;52.24;96009.97;10409270;28;20045;-23
2022/05/24 12:14:38;;;;;;;;;;;;;;;18.52;52.31;96027.66;10482209;28;20041;-23
2022/05/24 12:19:41;;;;;;;1.50;0.57;;;;;;;18.54;51.94;96020.88;10476491;28;19936;-23
2022/05/24 12:24:42;;;;;;;1.77;0.40;;;;;;;18.50;51.54;96009.09;10461163;28;20032;-23
2022/05/24 12:29:45;;;;;;;1.20;0.50;;;;;;;18.66;51.77;96025.81;10496691;28;20043;-23
2022/05/24 12:34:46;;;;;;;2.55;0.68;;;;;;;18.65;51.60;96013.97;10476861;28;20025;-23
2022/05/24 12:40:05;;;;;;;2.10;0.50;;;;;;;18.71;51.20;96013.91;10455463;28;20029;-24
2022/05/24 12:45:07;;;;;;;1.15;0.40;;;;;;;18.66;51.70;96010.59;10454026;28;20094;-24
2022/05/24 12:50:07;;;;;;;1.50;0.40;;;;;;;18.62;50.39;96019.94;10471365;28;20032;-22
2022/05/24 12:55:54;;;;;;;1.85;0.30;;;;;;;18.83;50.95;96013.78;10485038;28;20115;-24
2022/05/24 13:00:39;;;;;;;0.43;0.30;;;;;;;18.82;50.27;96007.84;10453944;28;20036;-23
2022/05/24 13:05:40;;;;;;;0.60;0.50;;;;;;;18.88;50.05;96001.84;10453246;28;20033;-25
2022/05/24 13:10:41;;;;;;;1.75;0.50;;;;;;;18.86;49.50;96008.66;10453181;28;20116;-21
2022/05/24 13:15:44;;;;;;;1.50;0.40;;;;;;;18.78;49.62;96011.28;10453699;28;20616;-23
2022/05/24 13:20:51;;;;;;;1.17;0.30;;;;;;;18.79;49.14;95999.44;10453821;28;20037;-24
2022/05/24 13:26:16;;;;;;;1.25;0.45;;;;;;;18.81;48.43;95996.03;10453329;28;20040;-23
2022/05/24 13:36:49;;;;;;;0.38;0.28;;;;;;;18.74;48.50;95996.16;10452976;28;20491;-24
2022/05/24 13:42:06;;;;;;;0.70;0.30;;;;;;;18.77;48.55;95985.94;10452885;28;20039;-24
2022/05/24 13:47:23;;;;;;;0.52;0.22;;;;;;;18.82;48.23;95984.22;10452019;28;20117;-23
2022/05/24 13:52:25;;;;;;;0.40;0.17;;;;;;;18.93;48.89;95984.88;10452396;28;20033;-23
2022/05/24 13:57:28;;;;;;;0.80;0.30;;;;;;;18.97;49.07;95992.44;10452740;28;20052;-24
2022/05/24 14:02:29;;;;;;;1.45;0.40;;;;;;;18.99;48.15;95985.63;10452580;28;20033;-23
2022/05/24 14:07:31;;;;;;;1.63;0.47;;;;;;;18.97;48.50;95994.13;10451845;28;20479;-24
2022/05/24 14:12:31;;;;;;;0.95;0.40;;;;;;;18.96;49.69;96000.06;10450979;28;20415;-24
2022/05/24 14:17:32;;;;;;;1.73;0.40;;;;;;;18.75;49.29;95968.22;10451331;28;20040;-24
2022/05/24 14:22:32;;;;;;;1.85;0.30;;;;;;;18.92;49.56;96006.03;10450142;28;20029;-26
2022/05/24 14:27:33;;;;;;;0.60;0.23;;;;;;;19.01;49.72;95999.13;10450731;28;20029;-24
2022/05/24 14:32:35;;;;;;;0.38;0.30;;;;;;;18.98;49.31;95999.19;10450525;28;20333;-23
2022/05/24 14:37:36;;;;;;;0.82;0.40;;;;;;;18.94;49.24;95991.63;10451529;28;20290;-24
2022/05/24 14:42:42;;;;;;;1.02;0.35;;;;;;;18.86;49.96;95999.34;10450795;28;20039;-24
2022/05/24 14:47:42;;;;;;;0.63;0.40;;;;;;;18.91;48.95;96001.84;10450215;28;20059;-23
2022/05/24 14:52:44;;;;;;;0.87;0.30;;;;;;;19.00;49.63;96006.78;10450491;28;20106;-24
2022/05/24 14:57:44;;;;;;;2.22;0.47;;;;;;;19.00;48.65;96016.94;10449851;28;20032;-23
2022/05/24 15:02:44;;;;;;;1.10;0.50;;;;;;;19.04;48.86;96023.63;10449539;28;20098;-23
2022/05/24 15:18:29;;;;;;;1.38;0.73;;;;;;;18.88;49.06;96022.16;10454966;28;20318;-23
2022/05/24 15:23:32;;;;;;;1.03;0.50;;;;;;;18.87;49.92;96026.41;10490774;28;20449;-22
2022/05/24 15:28:36;;;;;;;1.20;0.75;;;;;;;18.84;48.88;96028.94;10451975;28;20399;-23
2022/05/24 15:33:37;;;;;;;0.82;0.30;;;;;;;18.83;48.81;96036.59;10458587;28;20031;-23
2022/05/24 15:38:37;;;;;;;0.45;0.30;;;;;;;18.85;48.48;96033.16;10499404;28;20507;-23
2022/05/24 15:43:41;;;;;;;1.67;0.30;;;;;;;18.85;48.06;96027.25;10461447;28;20080;-22
2022/05/24 15:48:42;;;;;;;1.23;0.40;;;;;;;18.92;48.93;96022.09;10475552;28;20510;-24
2022/05/24 15:53:43;;;;;;;1.00;0.40;;;;;;;18.91;48.33;96024.66;10477358;28;20548;-24
2022/05/24 15:58:44;;;;;;;0.98;0.50;;;;;;;18.90;47.75;96030.56;10488662;28;20089;-24
2022/05/24 16:03:45;;;;;;;1.05;0.35;;;;;;;18.86;47.84;96027.25;10496254;28;20037;-24
2022/05/24 16:14:09;;;;;;;1.42;0.63;;;;;;;18.86;48.55;96013.72;10455780;28;20124;-24
2022/05/24 16:19:11;;;;;;;0.93;0.43;;;;;;;18.85;48.36;96001.91;10457340;28;20556;-24
2022/05/24 16:24:11;;;;;;;2.53;0.45;;;;;;;18.82;49.03;96018.00;10484721;28;20470;-23
2022/05/24 16:29:12;;;;;;;1.17;0.40;;;;;;;18.86;49.11;96018.78;10497149;28;20037;-25
2022/05/24 16:34:12;;;;;;;1.23;0.30;;;;;;;18.85;49.03;96024.72;10485682;28;20036;-25
2022/05/24 16:39:14;;;;;;;0.52;0.40;;;;;;;18.83;48.89;96029.81;10457344;28;20708;-23
2022/05/24 16:44:14;;;;;;;0.82;0.35;;;;;;;18.86;49.74;96047.53;10494229;28;20028;-23
2022/05/24 16:49:15;;;;;;;1.97;0.20;;;;;;;18.97;49.78;96055.00;10473416;28;20663;-23
2022/05/24 16:59:36;;;;;;;3.08;0.63;;;;;;;18.99;49.43;96071.06;10450321;28;20125;-21
2022/05/24 17:04:37;;;;;;;1.15;0.35;;;;;;;19.02;50.05;96068.47;10458278;28;20044;-22
2022/05/24 17:09:38;;;;;;;0.88;0.50;;;;;;;19.09;49.51;96072.63;10454782;28;20029;-23
2022/05/24 17:14:39;;;;;;;1.05;0.40;;;;;;;18.93;49.86;96073.66;10452427;28;20479;-29
2022/05/24 17:19:39;;;;;;;2.77;0.60;;;;;;;18.88;49.86;96091.47;10465773;28;20025;-23
2022/05/24 17:24:40;;;;;;;2.80;0.50;;;;;;;18.85;50.15;96088.13;10470802;28;20317;-23
2022/05/24 17:29:40;;;;;;;2.43;0.40;;;;;;;18.78;50.55;96101.72;10466845;28;20029;-23
2022/05/24 17:34:40;;;;;;;2.25;0.43;;;;;;;18.83;49.96;96097.47;10466495;28;20762;-24
2022/05/24 17:39:41;;;;;;;2.67;0.73;;;;;;;18.78;50.43;96086.53;10474629;28;20036;-24
2022/05/24 17:44:42;;;;;;;1.85;0.30;;;;;;;18.92;50.58;96082.13;10487635;28;20060;-23
2022/05/24 17:49:45;;;;;;;2.25;0.40;;;;;;;18.99;50.15;96083.75;10468154;28;20028;-23
2022/05/24 17:54:46;;;;;;;2.85;0.30;;;;;;;18.89;52.97;96083.00;10464422;28;20033;-23
2022/05/24 17:59:46;;;;;;;1.17;0.40;;;;;;;18.81;53.52;96086.47;10477453;28;20041;-23
2022/05/24 18:04:46;;;;;;;4.03;0.60;;;;;;;18.89;52.55;96089.75;10462843;28;20501;-22
2022/05/24 18:09:47;;;;;;;1.80;0.30;;;;;;;18.77;52.37;96105.13;10450493;28;20402;-23
2022/05/24 18:14:47;;;;;;;1.38;0.38;;;;;;;18.78;52.49;96105.13;10446427;28;20298;-23
2022/05/24 18:19:47;;;;;;;2.10;0.50;;;;;;;18.74;52.50;96115.31;10445348;28;20041;-25
2022/05/24 18:24:59;;;;;;;1.27;0.77;;;;;;;18.79;52.28;96118.63;10446337;28;20033;-22
2022/05/24 18:33:06;;;;;;;2.47;0.45;;;;;;;18.86;52.17;96127.84;10447641;28;20041;-23
2022/05/24 18:35:52;;;;;;;2.63;0.35;;;;;;;18.76;52.63;96121.22;10445574;28;20032;-25
2022/05/24 18:40:53;;;;;;;1.90;0.50;;;;;;;18.83;52.33;96115.22;10458086;28;20099;-23
2022/05/24 18:45:54;;;;;;;1.07;0.33;;;;;;;18.93;52.33;96126.94;10451745;28;20120;-22
2022/05/24 18:50:54;;;;;;;1.30;0.40;;;;;;;18.82;52.19;96127.03;10445414;28;20033;-24
2022/05/24 18:55:54;;;;;;;1.10;1.00;;;;;;;18.76;52.38;96128.81;10445111;28;20407;-25
2022/05/24 19:00:56;;;;;;;1.23;0.30;;;;;;;18.70;52.75;96137.31;10445797;28;20048;-25
2022/05/24 19:05:57;;;;;;;1.17;0.52;;;;;;;18.65;53.19;96135.66;10444432;28;20032;-24
2022/05/24 19:10:58;;;;;;;2.33;0.50;;;;;;;18.64;53.27;96141.59;10462331;28;20042;-24
2022/05/24 19:15:59;;;;;;;1.92;0.73;;;;;;;18.64;53.50;96150.06;10478342;28;20048;-22
2022/05/24 19:21:02;;;;;;;0.82;0.70;;;;;;;18.62;53.53;96156.00;10445061;28;20419;-24
2022/05/24 19:26:03;;;;;;;3.35;0.60;;;;;;;18.62;53.59;96169.53;10445188;28;20118;-24
2022/05/24 19:31:04;;;;;;;1.20;0.60;;;;;;;18.64;53.71;96183.00;10450876;28;20032;-24
2022/05/24 19:36:05;;;;;;;1.67;0.70;;;;;;;18.62;53.58;96196.56;10443494;28;20040;-23
2022/05/24 19:46:24;;;;;;;2.95;0.70;;;;;;;18.70;52.88;96220.16;10444027;28;20047;-23
2022/05/24 19:51:25;;;;;;;1.53;0.40;;;;;;;18.62;53.18;96242.19;10444485;28;20043;-23
2022/05/24 19:56:25;;;;;;;1.63;0.50;;;;;;;18.64;53.27;96248.09;10444182;28;20200;-22
2022/05/24 20:01:26;;;;;;;0.50;0.40;;;;;;;18.51;52.99;96244.81;10446298;28;20649;-23
2022/05/24 20:06:26;;;;;;;3.47;0.43;;;;;;;18.45;52.92;96255.00;10447681;28;20366;-23
2022/05/24 20:11:26;;;;;;;0.43;0.37;;;;;;;18.42;52.93;96241.53;10447850;28;20044;-24
2022/05/24 20:16:28;;;;;;;1.57;0.67;;;;;;;18.37;52.95;96258.44;10463287;28;20078;-23
2022/05/24 20:21:28;;;;;;;1.85;0.40;;;;;;;18.37;53.24;96271.09;10486129;28;20123;-23
2022/05/24 20:26:29;;;;;;;2.33;0.70;;;;;;;18.34;53.05;96261.00;10474441;28;20044;-24
2022/05/24 20:31:29;;;;;;;1.30;0.50;;;;;;;18.32;53.45;96276.22;10455885;28;20069;-24
2022/05/24 20:36:29;;;;;;;1.23;0.40;;;;;;;18.32;53.09;96288.06;10454184;28;20546;-25
2022/05/24 20:41:30;;;;;;;1.57;0.50;;;;;;;18.40;52.92;96288.84;10476332;28;20039;-23
2022/05/24 20:46:31;;;;;;;1.60;0.60;;;;;;;18.35;52.84;96273.63;10495897;28;20048;-23
2022/05/24 20:51:31;;;;;;;2.88;0.60;;;;;;;18.29;52.72;96277.88;10495445;28;20028;-25
2022/05/24 20:56:33;;;;;;;1.73;0.63;;;;;;;18.28;52.95;96286.34;10472390;28;20025;-25
2022/05/24 21:01:33;;;;;;;1.85;0.60;;;;;;;18.25;52.95;96283.84;10454881;28;20036;-23
2022/05/24 21:06:34;;;;;;;2.27;0.50;;;;;;;18.28;52.75;96291.41;10453232;28;20040;-23
2022/05/24 21:11:34;;;;;;;0.93;0.40;;;;;;;18.25;52.81;96291.44;10453888;28;20295;-24
2022/05/24 21:16:34;;;;;;;2.27;0.30;;;;;;;18.23;52.59;96300.72;10471914;28;20078;-23
2022/05/24 21:21:36;;;;;;;1.00;0.55;;;;;;;18.18;52.50;96288.06;10454977;28;20036;-23
2022/05/24 21:31:58;;;;;;;1.05;0.40;;;;;;;18.14;52.47;96308.38;10452475;28;20025;-24
2022/05/24 21:37:01;;;;;;;0.60;0.57;;;;;;;18.14;52.68;96318.50;10452614;28;20029;-23
2022/05/24 21:42:01;;;;;;;0.63;0.40;;;;;;;18.20;52.55;96328.63;10459078;28;20038;-22
2022/05/24 21:47:01;;;;;;;2.72;0.60;;;;;;;18.18;52.48;96325.25;10493771;28;20047;-23
2022/05/24 21:52:02;;;;;;;2.08;0.95;;;;;;;18.17;52.71;96329.47;10458657;28;20028;-23
2022/05/24 21:57:02;;;;;;;0.90;0.50;;;;;;;18.15;52.56;96331.16;10452629;28;20029;-24
2022/05/24 22:02:03;;;;;;;3.13;0.30;;;;;;;18.13;52.47;96334.56;10452711;28;20037;-23
2022/05/24 22:07:09;;;;;;;3.25;0.95;;;;;;;18.09;52.52;96338.78;10452145;28;20033;-23
2022/05/24 22:12:13;;;;;;;1.02;0.40;;;;;;;18.09;52.59;96345.56;10451774;28;20113;-23
2022/05/24 22:17:13;;;;;;;0.90;0.40;;;;;;;18.07;52.38;96352.34;10475946;28;20106;-24
2022/05/24 22:22:13;;;;;;;0.90;0.50;;;;;;;18.07;52.66;96354.88;10462223;28;20036;-24
2022/05/24 22:27:15;;;;;;;2.37;0.60;;;;;;;18.05;52.66;96351.47;10451205;28;20296;-23
2022/05/24 22:32:15;;;;;;;3.75;0.40;;;;;;;18.03;52.79;96356.56;10451666;28;20029;-22
2022/05/24 22:37:15;;;;;;;0.73;0.40;;;;;;;17.96;52.35;96341.38;10479163;28;20039;-22
2022/05/24 22:42:16;;;;;;;3.87;0.60;;;;;;;18.08;52.23;96359.09;10471306;28;20811;-22
2022/05/24 22:47:16;;;;;;;1.20;0.60;;;;;;;18.05;52.39;96354.88;10491583;28;20111;-22
2022/05/24 22:52:17;;;;;;;1.85;0.60;;;;;;;18.05;52.36;96366.69;10458657;28;20032;-23
2022/05/24 22:57:18;;;;;;;1.53;0.60;;;;;;;18.04;52.42;96362.47;10450160;28;20032;-23
2022/05/24 23:02:18;;;;;;;0.68;0.40;;;;;;;18.00;52.50;96360.81;10449578;28;20807;-23
2022/05/24 23:07:19;;;;;;;2.90;0.60;;;;;;;17.99;52.59;96369.25;10450527;28;20488;-23
2022/05/24 23:12:19;;;;;;;0.40;0.30;;;;;;;17.97;52.56;96351.53;10478444;28;20463;-22
2022/05/24 23:17:20;;;;;;;2.25;0.40;;;;;;;17.94;52.81;96365.88;10490639;28;20290;-22
2022/05/24 23:22:20;;;;;;;1.38;0.47;;;;;;;17.94;52.82;96381.09;10489825;28;20028;-23
2022/05/24 23:27:21;;;;;;;1.55;0.50;;;;;;;17.87;53.20;96359.16;10462298;28;20047;-24
2022/05/24 23:32:21;;;;;;;2.10;0.70;;;;;;;17.91;53.18;96370.97;10449413;28;20036;-23
2022/05/24 23:37:22;;;;;;;0.77;0.50;;;;;;;17.91;53.07;96364.19;10480076;28;20031;-23
2022/05/24 23:42:23;;;;;;;0.53;0.30;;;;;;;17.95;52.97;96353.22;10471563;28;20033;-24
2022/05/24 23:47:23;;;;;;;0.88;0.50;;;;;;;17.97;53.00;96360.81;10490057;28;20085;-23
2022/05/24 23:52:24;;;;;;;1.50;0.55;;;;;;;17.94;53.06;96355.75;10454813;28;20406;-22
2022/05/24 23:57:24;;;;;;;3.55;0.50;;;;;;;17.91;52.89;96365.91;10456428;28;20040;-22
